Holden, Canada
Current Conditions -  °F | °C
As of 3:17 PM on Thursday 27 Nov 2014 (Local Time) from CYEG Reporting Station
Light Snow Light Snow  
Wind Chill: -9°   Ceiling: 600
Heat Index:   Visibility: 0.62mi
Dew Point:   Wind: 12mph
Humidity: 79%   Direction: 30°NNE
Pressure: 29.97"   Gusts: 20mph
Location:  53.23°N, 112.23°W
Report Text: CYEG 272217Z 03010G17KT 5/8SM R02/4000FT/N -SN DRSN VV006 M14/M17 A2997 RMK SN8 SLP203
Loading
Personal Weather Stations






























Interactive Weather Map New forecast layout! Learn more

10-Day Weather Forecast

Advertisements
Track Severe Weather on mobile